Haines, AK

11:04 PM AKDT on May 24, 2017 (GMT -0800)
Letnikof Cove | | Change Station

Elev 230 ft 59.17 °N, 135.39 °W | Updated 9 seconds ago

Overcast
Overcast
47.5 °F
Feels Like 46 °F
N
3.4
Wind Variable Wind from SW
Gusts 7.4 mph

Today
High -- | Low -- °F
--% Chance of Precip.
Yesterday
High -- | Low -- °F
Precip. -- in
Pressure 30.13 in
Visibility 10.0 miles
Clouds Overcast 5000 ft
Windchill 46 °F
Dew Point 39 °F
Humidity 72%
Rainfall 0.00 in
Snow Depth Not available.
4:10 AM 9:48 PM
Waning Crescent, 0% visible
METAR PAHN 250654Z AUTO 10010G19KT 10SM OVC050 09/04 A3012 RMK AO2 SLP201 T00940039 TSNO
Pressure 30.13 in
Visibility 10.0 miles
Clouds Overcast 5000 ft
Windchill 46 °F
Dew Point 39 °F
Humidity 72%
Rainfall 0.00 in
Snow Depth Not available.
4:10 AM 9:48 PM
Waning Crescent, 0% visible
METAR PAHN 250654Z AUTO 10010G19KT 10SM OVC050 09/04 A3012 RMK AO2 SLP201 T00940039 TSNO

Get Severe Weather Alerts

Thanks for signing up!

Be on the lookout for a verification email in your inbox.

You'll start receiving the daily forecast at 6 AM.

×

10-Day Weather Forecast

Almanac

Astronomy

May. 24, 2017 Rise Set
Actual Time
Civil Twilight
Nautical Twilight
Astronomical Twilight
Moon
Length of Visible Light
Length of Day
Tomorrow will be .
, % of the Moon is Illuminated

Today's Extremes

State Highs State Lows

Community

WunderPhotos

Category 6

Welcome to Category 6. This is the collective home for Weather Underground's featured writeups by Dr. Jeff Masters (right), Bob Henson (left), Chris Burt, and other regular contributors.

Nearby

Air Quality

  Air Quality AQ Index Pollutant
Not available.

Snow Depth

Station Depth Elevation

Earthquake Activity

City Distance Mag. Time & Date
Minimum magnitude displayed is 2.5.

Coastal Water Temperatures

Place Temperature

Stations

Nearby Weather Stations

Station Location Temp. Windchill Dew Point Humidity Wind Precip. Elev Updated Type
                   

Watches & Warnings

There are currently no watches in effect.